首页
METAR-TAF:

METAR-TAF

机场 :

浮羅交怡國際機場

浮罗交怡, 马来西亚

纬度: 06-20N, 经度: 099-44E, 海拔: 8米

当前天气观测

该预报发布于1小时和9分钟前的06:00 UTC
风速5节,风向西,在南转西南之间变化
温度 33°C
湿度 71%
气压 1008 hPa
能见度10公里或以上
少量云层高于1700英尺, 积雨云.
散云层高于2000英尺

METAR: WMKL 220600Z 27005KT 200V350 9999 FEW017CB SCT020 33/27 Q1008

时间: 15:09 (07:09 UTC)

预报

该预报发布于2小时和9分钟前的05:00 UTC
预报有效从22日的 06点(UTC)到 23日的 06点(UTC)
风速6节,风向西转西南
能见度10公里或以上
散云层高于2000英尺
几率 40% :
短暂存在
从 22日的 06点(UTC)到 22日的 08点(UTC)
能見度: 6000
少量云层高于1000英尺
散云层高于2000英尺
阵雨,

TAF: WMKL 220500Z 2206/2306 25006KT 9999 SCT020 PROB40 TEMPO 2206/2208 6000 SHRA FEW010 SCT020

超过4000个机场的气象观测和天气预报(METAR&TAF报告)。

可查询的气象台以黄色和红色小点在地图上表示。

将鼠标移到小点上方,可查看气象台名称。

然后点击查看天气观测和预报。

如需切换地图:点击带黑十字的绿色按钮放大地图;点击带横线的绿色按钮缩小地图;或者点击绿色箭头查看邻近地区的地图。


METAR-TAF: